Time;durP1;ratioP1;P1;durP2;ratioP2;P2;SDS_P1;SDS_P2;PMS_P1;PMS_P2;Temp;Humidity;BMP_temperature;BMP_pressure;BME280_temperature;BME280_humidity;BME280_pressure;Samples;Min_cycle;Max_cycle;Signal;HPM_P1;HPM_P2
2022/08/09 00:02:32;;;;;;;;;;;;;;;14.21;100.00;102835.09;10438761;28;19920;-83
2022/08/09 00:07:33;;;;;;;;;;;;;;;14.20;100.00;102829.75;10395170;28;19927;-82
2022/08/09 00:12:33;;;;;;;;;;;;;;;14.14;100.00;102831.56;10460730;28;19927;-83
2022/08/09 00:17:33;;;;;;;;;;;;;;;14.09;100.00;102820.31;10459801;28;20011;-83
2022/08/09 00:22:34;;;;;;;;;;;;;;;14.02;100.00;102825.09;10460222;28;20366;-80
2022/08/09 00:27:34;;;;;;;;;;;;;;;13.95;100.00;102821.53;10440784;28;19968;-83
2022/08/09 00:32:34;;;;;;;;;;;;;;;13.87;100.00;102806.94;10458567;28;19921;-83
2022/08/09 00:37:35;;;;;;;;;;;;;;;13.80;100.00;102817.22;10426476;28;19932;-85
2022/08/09 00:42:35;;;;;;;;;;;;;;;13.76;100.00;102812.38;10459295;28;19917;-85
2022/08/09 00:47:35;;;;;;;;;;;;;;;13.70;100.00;102812.22;10462506;28;19917;-83
2022/08/09 00:52:35;;;;;;;;;;;;;;;13.64;100.00;102818.66;10461794;28;19939;-84
2022/08/09 00:57:37;;;;;;;;;;;;;;;13.58;100.00;102819.56;10459395;28;20284;-85
2022/08/09 01:02:38;;;;;;;;;;;;;;;13.53;100.00;102817.47;10461244;28;19928;-82
2022/08/09 01:07:45;;;;;;;;;;;;;;;13.49;100.00;102827.28;10440533;28;19947;-74
2022/08/09 01:12:55;;;;;;;;;;;;;;;13.47;100.00;102812.00;10446606;28;19920;-83
2022/08/09 01:18:02;;;;;;;;;;;;;;;13.43;100.00;102821.81;10460385;28;19927;-83
2022/08/09 01:23:08;;;;;;;;;;;;;;;13.40;100.00;102823.13;10459415;28;19928;-85
2022/08/09 01:28:08;;;;;;;;;;;;;;;13.39;100.00;102831.63;10442140;28;19916;-84
2022/08/09 01:33:09;;;;;;;;;;;;;;;13.35;100.00;102825.69;10442826;28;19935;-84
2022/08/09 01:38:10;;;;;;;;;;;;;;;13.33;100.00;102838.91;10452184;28;19928;-86
2022/08/09 01:43:11;;;;;;;;;;;;;;;13.31;100.00;102839.16;10451181;28;19936;-85
2022/08/09 01:48:11;;;;;;;;;;;;;;;13.30;100.00;102839.38;10450738;28;20328;-86
2022/08/09 01:53:12;;;;;;;;;;;;;;;13.27;100.00;102846.19;10465773;28;19920;-87
2022/08/09 01:58:12;;;;;;;;;;;;;;;13.24;100.00;102851.31;10466444;28;19947;-87
2022/08/09 02:03:13;;;;;;;;;;;;;;;13.21;100.00;102841.53;10450604;28;19948;-87
2022/08/09 02:08:14;;;;;;;;;;;;;;;13.11;100.00;102844.81;10433401;28;20303;-86
2022/08/09 02:13:15;;;;;;;;;;;;;;;13.10;100.00;102845.88;10466060;28;19920;-86
2022/08/09 02:18:16;;;;;;;;;;;;;;;13.07;100.00;102843.56;10465623;28;19972;-85
2022/08/09 02:23:17;;;;;;;;;;;;;;;13.04;100.00;102846.78;10465195;28;19994;-88
2022/08/09 02:28:40;;;;;;;;;;;;;;;12.97;100.00;102848.72;10464425;28;20015;-87
2022/08/09 02:33:42;;;;;;;;;;;;;;;12.93;100.00;102839.19;10457548;28;20344;-85
2022/08/09 02:38:46;;;;;;;;;;;;;;;12.89;100.00;102838.75;10448906;28;20343;-87
2022/08/09 02:43:47;;;;;;;;;;;;;;;12.83;100.00;102828.59;10448109;28;19916;-86
2022/08/09 02:48:47;;;;;;;;;;;;;;;12.80;100.00;102842.03;10464418;28;19917;-87
2022/08/09 02:53:48;;;;;;;;;;;;;;;12.79;100.00;102843.09;10464738;28;19920;-86
2022/08/09 02:58:49;;;;;;;;;;;;;;;12.77;100.00;102845.22;10463301;28;19928;-86
2022/08/09 03:03:49;;;;;;;;;;;;;;;12.76;100.00;102843.53;10447529;28;19928;-87
2022/08/09 03:08:49;;;;;;;;;;;;;;;12.70;100.00;102836.97;10465209;28;19917;-85
2022/08/09 03:13:50;;;;;;;;;;;;;;;12.64;100.00;102824.03;10462662;28;19942;-83
2022/08/09 03:18:50;;;;;;;;;;;;;;;12.25;100.00;102770.66;10463368;28;19928;-84
2022/08/09 03:23:50;;;;;;;;;;;;;;;12.56;100.00;102832.56;10463485;28;19916;-86
2022/08/09 03:28:54;;;;;;;;;;;;;;;12.53;100.00;102839.41;10463896;28;20028;-86
2022/08/09 03:33:54;;;;;;;;;;;;;;;12.48;100.00;102836.44;10445049;28;19930;-86
2022/08/09 03:38:55;;;;;;;;;;;;;;;12.46;100.00;102833.03;10427083;28;19955;-86
2022/08/09 03:43:56;;;;;;;;;;;;;;;12.43;100.00;102842.63;10461230;28;20181;-84
2022/08/09 03:48:56;;;;;;;;;;;;;;;12.41;100.00;102835.63;10444995;28;19916;-85
2022/08/09 03:53:56;;;;;;;;;;;;;;;12.43;100.00;102839.00;10444179;28;19955;-84
2022/08/09 03:58:57;;;;;;;;;;;;;;;12.41;100.00;102836.47;10442953;28;19924;-85
2022/08/09 04:03:57;;;;;;;;;;;;;;;12.41;100.00;102842.00;10443062;28;19927;-84
2022/08/09 04:09:01;;;;;;;;;;;;;;;12.43;100.00;102839.00;10443867;28;19980;-83
2022/08/09 04:14:01;;;;;;;;;;;;;;;12.47;100.00;102840.28;10458584;28;19948;-84
2022/08/09 04:19:02;;;;;;;;;;;;;;;12.50;100.00;102846.19;10442380;28;19921;-83
2022/08/09 04:24:02;;;;;;;;;;;;;;;12.57;100.00;102850.84;10458349;28;19928;-83
2022/08/09 04:29:03;;;;;;;;;;;;;;;12.61;100.00;102849.34;10441351;28;19963;-84
2022/08/09 04:34:03;;;;;;;;;;;;;;;12.66;100.00;102855.06;10441828;28;19926;-83
2022/08/09 04:39:04;;;;;;;;;;;;;;;12.70;100.00;102851.63;10457867;28;19921;-82
2022/08/09 04:44:04;;;;;;;;;;;;;;;12.79;100.00;102859.66;10440951;28;19917;-84
2022/08/09 04:49:05;;;;;;;;;;;;;;;12.89;100.00;102865.56;10458903;28;19982;-84
2022/08/09 04:54:05;;;;;;;;;;;;;;;13.02;100.00;102859.97;10441754;28;19983;-83
2022/08/09 04:59:05;;;;;;;;;;;;;;;13.08;100.00;102870.16;10439936;28;19928;-84
2022/08/09 05:04:06;;;;;;;;;;;;;;;13.17;100.00;102872.63;10451902;28;19980;-84
2022/08/09 05:09:06;;;;;;;;;;;;;;;13.25;100.00;102876.00;10458000;28;20327;-84
2022/08/09 05:14:07;;;;;;;;;;;;;;;13.35;100.00;102883.81;10461011;28;19921;-84
2022/08/09 05:19:07;;;;;;;;;;;;;;;13.42;100.00;102884.63;10448380;28;20292;-83
2022/08/09 05:24:07;;;;;;;;;;;;;;;13.53;100.00;102883.88;10482305;28;19947;-83
2022/08/09 05:29:08;;;;;;;;;;;;;;;13.72;100.00;102893.13;10480422;28;19931;-84
2022/08/09 05:34:08;;;;;;;;;;;;;;;13.86;100.00;102893.81;10449092;28;19932;-84
2022/08/09 05:39:08;;;;;;;;;;;;;;;14.10;100.00;102907.88;10466467;28;19916;-85
2022/08/09 05:44:09;;;;;;;;;;;;;;;14.29;100.00;102909.59;10448608;28;19931;-84
2022/08/09 05:49:10;;;;;;;;;;;;;;;14.51;100.00;102900.81;10465556;28;19916;-85
2022/08/09 05:54:10;;;;;;;;;;;;;;;14.86;100.00;102894.63;10467276;28;20025;-86
2022/08/09 05:59:11;;;;;;;;;;;;;;;15.31;100.00;102905.31;10463977;28;20013;-85
2022/08/09 06:04:11;;;;;;;;;;;;;;;15.72;100.00;102907.25;10467125;28;19921;-76
2022/08/09 06:09:11;;;;;;;;;;;;;;;16.11;100.00;102898.44;10449551;28;19917;-85
2022/08/09 06:14:12;;;;;;;;;;;;;;;16.49;100.00;102897.06;10462937;28;19927;-85
2022/08/09 06:19:13;;;;;;;;;;;;;;;16.90;100.00;102897.94;10464372;28;19988;-85
2022/08/09 06:24:13;;;;;;;;;;;;;;;17.26;100.00;102888.34;10465494;28;20411;-85
2022/08/09 06:29:14;;;;;;;;;;;;;;;17.48;100.00;102890.38;10464331;28;19920;-84
2022/08/09 06:34:14;;;;;;;;;;;;;;;17.73;100.00;102895.53;10460569;28;20299;-86
2022/08/09 06:39:14;;;;;;;;;;;;;;;17.94;100.00;102900.38;10443024;28;19921;-83
2022/08/09 06:44:15;;;;;;;;;;;;;;;18.11;100.00;102900.38;10443459;28;19963;-85
2022/08/09 06:49:16;;;;;;;;;;;;;;;18.18;100.00;102908.53;10427142;28;19931;-83
2022/08/09 06:54:16;;;;;;;;;;;;;;;18.35;100.00;102925.22;10459331;28;19921;-82
2022/08/09 06:59:16;;;;;;;;;;;;;;;18.50;100.00;102933.81;10451698;28;19920;-83
2022/08/09 07:04:16;;;;;;;;;;;;;;;18.70;100.00;102946.34;10419360;28;19932;-80
2022/08/09 07:09:17;;;;;;;;;;;;;;;19.06;100.00;102933.72;10425285;28;20335;-91
2022/08/09 07:14:17;;;;;;;;;;;;;;;19.11;100.00;102936.53;10437768;28;19973;-85
2022/08/09 07:19:18;;;;;;;;;;;;;;;18.91;100.00;102941.88;10438614;28;20015;-84
2022/08/09 07:24:18;;;;;;;;;;;;;;;18.55;100.00;102941.41;10435192;28;19947;-87
2022/08/09 07:29:19;;;;;;;;;;;;;;;18.31;100.00;102944.44;10439423;28;20862;-77
2022/08/09 07:34:19;;;;;;;;;;;;;;;18.56;100.00;102951.44;10419495;28;20861;-86
2022/08/09 07:39:20;;;;;;;;;;;;;;;19.18;100.00;102955.88;10438293;28;19928;-82
2022/08/09 07:44:20;;;;;;;;;;;;;;;19.65;100.00;102940.44;10418184;28;19917;-84
2022/08/09 07:49:20;;;;;;;;;;;;;;;20.00;100.00;102936.28;10419979;28;19928;-89
2022/08/09 07:54:21;;;;;;;;;;;;;;;20.56;100.00;102945.84;10424637;28;19917;-87
2022/08/09 07:59:21;;;;;;;;;;;;;;;20.81;100.00;102923.91;10436569;28;19984;-85
2022/08/09 08:04:21;;;;;;;;;;;;;;;20.88;100.00;102911.34;10441128;28;20276;-88
2022/08/09 08:09:22;;;;;;;;;;;;;;;20.61;100.00;102919.91;10435460;28;19924;-89
2022/08/09 08:14:22;;;;;;;;;;;;;;;20.59;100.00;102919.34;10418363;28;19928;-76
2022/08/09 08:19:22;;;;;;;;;;;;;;;20.86;100.00;102907.97;10435951;28;19932;-86
2022/08/09 08:24:23;;;;;;;;;;;;;;;21.24;100.00;102928.22;10437135;28;19917;-83
2022/08/09 08:29:24;;;;;;;;;;;;;;;21.72;100.00;102928.84;10434270;28;19921;-86
2022/08/09 08:34:24;;;;;;;;;;;;;;;22.15;100.00;102917.31;10425189;28;19988;-92
2022/08/09 08:39:24;;;;;;;;;;;;;;;21.98;100.00;102928.03;10435039;28;19917;-83
2022/08/09 08:44:25;;;;;;;;;;;;;;;22.13;100.00;102934.44;10433406;28;19940;-90
2022/08/09 08:49:25;;;;;;;;;;;;;;;22.03;100.00;102930.81;10425958;28;20401;-82
2022/08/09 08:54:25;;;;;;;;;;;;;;;22.21;100.00;102930.22;10408877;28;19917;-89
2022/08/09 08:59:26;;;;;;;;;;;;;;;22.66;100.00;102920.00;10430159;28;19929;-91
2022/08/09 09:04:28;;;;;;;;;;;;;;;22.85;98.49;102910.94;10418168;28;19927;-85
2022/08/09 09:09:28;;;;;;;;;;;;;;;23.14;99.01;102911.91;10423757;28;20312;-86
2022/08/09 09:14:29;;;;;;;;;;;;;;;23.17;95.91;102916.13;10433187;28;19928;-84
2022/08/09 09:19:29;;;;;;;;;;;;;;;22.77;95.21;102916.03;10399677;28;19921;-79
2022/08/09 09:24:31;;;;;;;;;;;;;;;22.55;94.75;102918.34;10435928;28;19927;-78
2022/08/09 09:29:32;;;;;;;;;;;;;;;22.01;96.94;102930.25;10432892;28;19920;-78
2022/08/09 09:34:32;;;;;;;;;;;;;;;22.47;98.63;102919.81;10449869;28;19976;-79
2022/08/09 09:39:33;;;;;;;;;;;;;;;22.86;95.34;102907.84;10437253;28;19917;-76
2022/08/09 09:44:33;;;;;;;;;;;;;;;22.94;92.82;102909.19;10423803;28;19921;-76
2022/08/09 09:49:34;;;;;;;;;;;;;;;22.82;92.36;102906.75;10412650;28;19992;-77
2022/08/09 09:54:38;;;;;;;;;;;;;;;22.91;91.78;102909.78;10415152;28;19924;-76
2022/08/09 09:59:38;;;;;;;;;;;;;;;23.35;91.68;102917.41;10416485;28;19927;-79
2022/08/09 10:04:39;;;;;;;;;;;;;;;23.75;88.46;102912.56;10421260;28;20272;-67
2022/08/09 10:09:46;;;;;;;;;;;;;;;23.66;88.18;102912.38;10420710;28;19917;-72
2022/08/09 10:14:47;;;;;;;;;;;;;;;23.59;90.03;102908.25;10403086;28;19980;-82
2022/08/09 10:19:47;;;;;;;;;;;;;;;23.79;86.97;102904.44;10420060;28;19925;-84
2022/08/09 10:24:47;;;;;;;;;;;;;;;24.01;84.34;102892.69;10421732;28;20357;-81
2022/08/09 10:29:48;;;;;;;;;;;;;;;23.98;82.89;102885.69;10403309;28;19924;-80
2022/08/09 10:34:48;;;;;;;;;;;;;;;23.61;82.84;102875.06;10420023;28;19921;-80
2022/08/09 10:39:48;;;;;;;;;;;;;;;23.73;84.96;102876.34;10430352;28;20255;-84
2022/08/09 10:44:51;;;;;;;;;;;;;;;23.83;85.16;102868.94;10435475;28;19943;-76
2022/08/09 10:49:57;;;;;;;;;;;;;;;24.08;83.88;102860.25;10417070;28;19921;-79
2022/08/09 10:55:01;;;;;;;;;;;;;;;24.79;81.56;102856.88;10417597;28;19917;-77
2022/08/09 11:00:01;;;;;;;;;;;;;;;24.97;79.50;102853.19;10418504;28;19984;-79
2022/08/09 11:05:11;;;;;;;;;;;;;;;24.89;79.37;102860.38;10425100;28;19928;-80
2022/08/09 11:10:12;;;;;;;;;;;;;;;25.22;79.76;102865.25;10419223;28;20002;-78
2022/08/09 11:15:12;;;;;;;;;;;;;;;25.22;78.46;102859.63;10403537;28;19920;-79
2022/08/09 11:20:14;;;;;;;;;;;;;;;25.53;77.90;102855.16;10440167;28;19927;-77
2022/08/09 11:25:14;;;;;;;;;;;;;;;25.52;76.34;102847.81;10441415;28;19924;-77
2022/08/09 11:30:21;;;;;;;;;;;;;;;25.41;75.60;102851.97;10441770;28;19951;-81
2022/08/09 11:35:21;;;;;;;;;;;;;;;25.88;74.84;102846.31;10440946;28;20180;-80
2022/08/09 11:40:21;;;;;;;;;;;;;;;25.78;75.34;102833.28;10440570;28;20206;-81
2022/08/09 11:45:27;;;;;;;;;;;;;;;25.71;73.23;102830.00;10440739;28;20306;-79
2022/08/09 11:50:28;;;;;;;;;;;;;;;25.91;73.29;102838.13;10440908;28;19947;-78
2022/08/09 11:55:28;;;;;;;;;;;;;;;26.42;71.18;102829.75;10436756;28;19921;-79
2022/08/09 12:00:29;;;;;;;;;;;;;;;27.03;68.45;102821.88;10403273;28;19924;-79
2022/08/09 12:05:30;;;;;;;;;;;;;;;27.72;68.07;102835.69;10415509;28;20388;-77
2022/08/09 12:10:31;;;;;;;;;;;;;;;28.38;63.73;102810.31;10398069;28;19924;-79
2022/08/09 12:15:31;;;;;;;;;;;;;;;28.34;61.67;102813.00;10414888;28;19928;-78
2022/08/09 12:20:33;;;;;;;;;;;;;;;28.68;61.14;102785.06;10397689;28;19924;-82
2022/08/09 12:25:33;;;;;;;;;;;;;;;29.63;59.49;102786.13;10397939;28;20287;-79
2022/08/09 12:30:34;;;;;;;;;;;;;;;30.35;57.51;102785.13;10414537;28;20012;-75
2022/08/09 12:35:34;;;;;;;;;;;;;;;31.10;56.25;102772.16;10414445;28;19974;-80
2022/08/09 12:40:35;;;;;;;;;;;;;;;30.78;52.19;102763.25;10413659;28;19924;-76
2022/08/09 12:45:35;;;;;;;;;;;;;;;30.69;52.15;102754.78;10413781;28;19916;-79
2022/08/09 12:50:35;;;;;;;;;;;;;;;30.67;52.86;102756.31;10413560;28;19925;-79
2022/08/09 12:55:36;;;;;;;;;;;;;;;30.63;53.31;102761.84;10381030;28;19917;-79
2022/08/09 13:00:40;;;;;;;;;;;;;;;31.30;51.03;102756.22;10396745;28;19984;-79
2022/08/09 13:05:41;;;;;;;;;;;;;;;31.40;51.50;102752.94;10396430;28;19952;-78
2022/08/09 13:10:43;;;;;;;;;;;;;;;31.16;48.88;102737.44;10412622;28;19924;-78
2022/08/09 13:15:57;;;;;;;;;;;;;;;31.48;49.18;102737.81;10412749;28;20447;-79
2022/08/09 13:20:57;;;;;;;;;;;;;;;31.67;48.38;102730.66;10396330;28;20397;-77
2022/08/09 13:25:57;;;;;;;;;;;;;;;31.52;49.36;102741.56;10396798;28;19984;-79
2022/08/09 13:31:02;;;;;;;;;;;;;;;31.82;48.53;102743.41;10398983;28;19920;-84
2022/08/09 13:36:02;;;;;;;;;;;;;;;31.71;48.71;102738.16;10404324;28;19962;-79
2022/08/09 13:41:03;;;;;;;;;;;;;;;31.86;47.66;102747.19;10412022;28;19940;-76
2022/08/09 13:46:03;;;;;;;;;;;;;;;31.68;47.45;102743.72;10404042;28;19924;-77
2022/08/09 13:51:03;;;;;;;;;;;;;;;31.68;47.90;102738.88;10403788;28;19917;-80
2022/08/09 13:56:04;;;;;;;;;;;;;;;31.72;48.40;102739.00;10404228;28;20016;-81
2022/08/09 14:01:04;;;;;;;;;;;;;;;31.83;47.84;102737.31;10403557;28;19921;-71
2022/08/09 14:06:11;;;;;;;;;;;;;;;31.70;48.17;102738.53;10420054;28;19936;-81
2022/08/09 14:11:11;;;;;;;;;;;;;;;31.53;47.94;102753.81;10403117;28;19952;-83
2022/08/09 14:16:13;;;;;;;;;;;;;;;31.37;49.19;102745.09;10402307;28;19921;-76
2022/08/09 14:21:16;;;;;;;;;;;;;;;31.34;48.73;102740.13;10402831;28;19921;-82
2022/08/09 14:26:19;;;;;;;;;;;;;;;31.16;48.03;102743.13;10387381;28;19959;-81
2022/08/09 14:31:19;;;;;;;;;;;;;;;31.27;46.65;102734.97;10402069;28;19928;-76
2022/08/09 14:36:20;;;;;;;;;;;;;;;30.80;48.48;102742.97;10418610;28;19932;-80
2022/08/09 14:41:20;;;;;;;;;;;;;;;30.52;49.74;102746.41;10418385;28;19925;-81
2022/08/09 14:46:20;;;;;;;;;;;;;;;30.72;47.86;102739.88;10384441;28;19924;-81
2022/08/09 14:51:21;;;;;;;;;;;;;;;30.77;48.65;102733.97;10418290;28;19946;-80
2022/08/09 14:56:21;;;;;;;;;;;;;;;30.98;48.87;102738.81;10418234;28;19928;-83
2022/08/09 15:01:21;;;;;;;;;;;;;;;31.29;47.45;102731.78;10401113;28;19936;-82
2022/08/09 15:06:22;;;;;;;;;;;;;;;30.86;48.52;102730.19;10417267;28;20459;-82
2022/08/09 15:11:23;;;;;;;;;;;;;;;30.93;47.79;102725.66;10417463;28;19952;-79
2022/08/09 15:16:23;;;;;;;;;;;;;;;31.04;48.33;102726.03;10403870;28;19970;-82
2022/08/09 15:21:23;;;;;;;;;;;;;;;31.51;46.69;102725.69;10435853;28;19990;-80
2022/08/09 15:26:24;;;;;;;;;;;;;;;31.69;46.46;102714.91;10439107;28;19917;-84
2022/08/09 15:31:24;;;;;;;;;;;;;;;31.34;46.70;102723.03;10404424;28;19943;-82
2022/08/09 15:36:25;;;;;;;;;;;;;;;31.24;46.07;102712.13;10417546;28;19924;-75
2022/08/09 15:41:25;;;;;;;;;;;;;;;31.21;46.16;102704.28;10400084;28;19963;-82
2022/08/09 15:46:25;;;;;;;;;;;;;;;31.29;46.91;102706.19;10399336;28;20163;-82
2022/08/09 15:51:26;;;;;;;;;;;;;;;31.60;45.60;102702.78;10399804;28;19917;-82
2022/08/09 15:56:26;;;;;;;;;;;;;;;30.87;45.79;102697.75;10414903;28;19948;-85
2022/08/09 16:01:26;;;;;;;;;;;;;;;30.60;46.66;102705.72;10430780;28;20468;-90
2022/08/09 16:06:27;;;;;;;;;;;;;;;30.11;46.95;102703.38;10435213;28;19988;-82
2022/08/09 16:11:28;;;;;;;;;;;;;;;29.36;48.03;102703.09;10434011;28;19924;-77
2022/08/09 16:16:30;;;;;;;;;;;;;;;27.74;50.68;102721.03;10437146;28;19960;-77
2022/08/09 16:21:30;;;;;;;;;;;;;;;26.65;53.54;102740.28;10418849;28;19929;-74
2022/08/09 16:26:31;;;;;;;;;;;;;;;25.54;56.63;102746.81;10433625;28;20300;-81
2022/08/09 16:31:31;;;;;;;;;;;;;;;24.94;58.16;102763.66;10437436;28;19920;-89
2022/08/09 16:36:32;;;;;;;;;;;;;;;24.46;60.21;102763.81;10422609;28;20295;-85
2022/08/09 16:41:32;;;;;;;;;;;;;;;24.03;61.05;102775.06;10404397;28;19921;-81
2022/08/09 16:46:33;;;;;;;;;;;;;;;23.73;61.35;102785.47;10418274;28;19917;-82
2022/08/09 16:51:34;;;;;;;;;;;;;;;23.45;62.42;102790.84;10417783;28;19916;-81
2022/08/09 16:56:34;;;;;;;;;;;;;;;23.34;63.01;102792.09;10432562;28;19984;-81
2022/08/09 17:01:34;;;;;;;;;;;;;;;23.07;64.36;102790.63;10390237;28;19924;-82
2022/08/09 17:06:35;;;;;;;;;;;;;;;22.85;65.49;102788.22;10437377;28;20002;-83
2022/08/09 17:11:35;;;;;;;;;;;;;;;22.63;65.82;102791.44;10454701;28;19917;-84
2022/08/09 17:16:35;;;;;;;;;;;;;;;22.51;67.01;102796.56;10453232;28;19920;-80
2022/08/09 17:21:36;;;;;;;;;;;;;;;22.33;67.79;102798.91;10430490;28;19920;-83
2022/08/09 17:26:36;;;;;;;;;;;;;;;22.22;67.75;102796.38;10412314;28;20365;-81
2022/08/09 17:31:36;;;;;;;;;;;;;;;21.97;68.06;102795.34;10452913;28;19929;-84
2022/08/09 17:36:37;;;;;;;;;;;;;;;21.95;69.33;102792.00;10453390;28;20457;-84
2022/08/09 17:41:37;;;;;;;;;;;;;;;21.89;68.30;102804.34;10436420;28;19963;-86
2022/08/09 17:46:37;;;;;;;;;;;;;;;21.82;70.34;102803.81;10453176;28;20150;-86
2022/08/09 17:51:38;;;;;;;;;;;;;;;21.68;69.42;102810.00;10408056;28;20035;-85
2022/08/09 17:56:38;;;;;;;;;;;;;;;21.53;71.06;102808.06;10435874;28;19916;-87
2022/08/09 18:01:39;;;;;;;;;;;;;;;21.42;71.33;102803.59;10405268;28;19976;-81
2022/08/09 18:06:39;;;;;;;;;;;;;;;21.30;70.69;102803.03;10454850;28;20067;-73
2022/08/09 18:11:39;;;;;;;;;;;;;;;21.10;70.98;102793.47;10435644;28;19916;-76
2022/08/09 18:16:40;;;;;;;;;;;;;;;20.94;71.71;102800.22;10451611;28;19921;-79
2022/08/09 18:21:40;;;;;;;;;;;;;;;20.79;74.30;102802.97;10423229;28;19931;-84
2022/08/09 18:26:40;;;;;;;;;;;;;;;20.63;75.52;102797.34;10442715;28;19968;-83
2022/08/09 18:31:40;;;;;;;;;;;;;;;20.52;76.76;102798.38;10436051;28;19920;-84
2022/08/09 18:36:43;;;;;;;;;;;;;;;20.38;77.44;102794.41;10442989;28;19924;-84
2022/08/09 18:41:43;;;;;;;;;;;;;;;20.26;78.05;102795.50;10442354;28;19999;-87
2022/08/09 18:46:43;;;;;;;;;;;;;;;20.10;81.66;102794.59;10440170;28;19921;-87
2022/08/09 18:51:44;;;;;;;;;;;;;;;19.92;81.28;102793.09;10424226;28;19924;-84
2022/08/09 18:56:44;;;;;;;;;;;;;;;19.79;82.95;102801.97;10416159;28;20435;-85
2022/08/09 19:01:44;;;;;;;;;;;;;;;19.65;84.46;102807.16;10441834;28;19921;-87
2022/08/09 19:06:45;;;;;;;;;;;;;;;19.50;86.03;102805.09;10428105;28;20015;-88
2022/08/09 19:11:45;;;;;;;;;;;;;;;19.40;88.73;102809.78;10442707;28;20347;-87
2022/08/09 19:16:45;;;;;;;;;;;;;;;19.27;91.74;102819.44;10428848;28;20409;-80
2022/08/09 19:21:46;;;;;;;;;;;;;;;19.13;93.00;102831.03;10424552;28;19921;-86
2022/08/09 19:26:46;;;;;;;;;;;;;;;19.02;96.49;102834.84;10453566;28;19924;-87
2022/08/09 19:31:47;;;;;;;;;;;;;;;18.83;96.29;102831.59;10420607;28;19931;-86
2022/08/09 19:36:47;;;;;;;;;;;;;;;18.68;98.67;102840.56;10439290;28;19917;-88
2022/08/09 19:41:47;;;;;;;;;;;;;;;18.61;100.00;102853.06;10458891;28;20253;-86
2022/08/09 19:46:48;;;;;;;;;;;;;;;18.52;100.00;102858.22;10411996;28;19917;-83
2022/08/09 19:51:48;;;;;;;;;;;;;;;18.43;100.00;102854.22;10461596;28;19925;-90
2022/08/09 19:56:48;;;;;;;;;;;;;;;18.32;100.00;102870.81;10439373;28;19916;-77
2022/08/09 20:01:49;;;;;;;;;;;;;;;18.23;100.00;102880.75;10411678;28;19921;-78
2022/08/09 20:06:49;;;;;;;;;;;;;;;18.19;100.00;102873.13;10396198;28;19916;-77
2022/08/09 20:11:50;;;;;;;;;;;;;;;18.07;100.00;102876.06;10438081;28;19958;-77
2022/08/09 20:16:50;;;;;;;;;;;;;;;18.03;100.00;102874.88;10437408;28;19921;-78
2022/08/09 20:21:50;;;;;;;;;;;;;;;17.96;100.00;102880.59;10437225;28;19931;-72
2022/08/09 20:26:51;;;;;;;;;;;;;;;17.90;100.00;102876.91;10419846;28;20560;-77
2022/08/09 20:31:51;;;;;;;;;;;;;;;17.85;100.00;102874.03;10435473;28;19940;-78
2022/08/09 20:36:52;;;;;;;;;;;;;;;17.78;100.00;102872.47;10454991;28;20524;-76
2022/08/09 20:41:52;;;;;;;;;;;;;;;17.71;100.00;102878.25;10435672;28;19920;-76
2022/08/09 20:46:52;;;;;;;;;;;;;;;17.63;100.00;102884.22;10452364;28;19920;-76
2022/08/09 20:51:53;;;;;;;;;;;;;;;17.57;100.00;102891.69;10454422;28;19926;-73
2022/08/09 20:56:53;;;;;;;;;;;;;;;17.53;100.00;102901.63;10435850;28;19921;-76
2022/08/09 21:01:54;;;;;;;;;;;;;;;17.49;100.00;102880.97;10417157;28;20031;-76
2022/08/09 21:06:54;;;;;;;;;;;;;;;17.46;100.00;102875.88;10434295;28;20493;-77
2022/08/09 21:11:54;;;;;;;;;;;;;;;17.39;100.00;102875.22;10434028;28;19924;-77
2022/08/09 21:16:55;;;;;;;;;;;;;;;17.31;100.00;102868.09;10434950;28;19928;-77
2022/08/09 21:21:55;;;;;;;;;;;;;;;17.22;100.00;102856.53;10435679;28;19936;-77
2022/08/09 21:26:56;;;;;;;;;;;;;;;17.10;100.00;102866.91;10417971;28;20003;-77
2022/08/09 21:31:56;;;;;;;;;;;;;;;16.99;100.00;102857.53;10413946;28;19948;-76
2022/08/09 21:36:56;;;;;;;;;;;;;;;16.89;100.00;102857.31;10410333;28;19917;-76
2022/08/09 21:41:57;;;;;;;;;;;;;;;16.78;100.00;102847.03;10410355;28;19917;-77
2022/08/09 21:46:57;;;;;;;;;;;;;;;16.70;100.00;102848.28;10410636;28;19917;-76
2022/08/09 21:51:57;;;;;;;;;;;;;;;16.62;100.00;102857.88;10410258;28;19996;-77
2022/08/09 21:56:58;;;;;;;;;;;;;;;16.63;100.00;102850.38;10443405;28;19928;-77
2022/08/09 22:01:58;;;;;;;;;;;;;;;16.62;100.00;102855.09;10430472;28;19920;-76
2022/08/09 22:06:58;;;;;;;;;;;;;;;16.63;100.00;102858.72;10426438;28;19948;-76
2022/08/09 22:11:59;;;;;;;;;;;;;;;16.60;100.00;102860.06;10441994;28;19916;-76
2022/08/09 22:16:59;;;;;;;;;;;;;;;16.59;100.00;102863.91;10462688;28;19921;-75
2022/08/09 22:21:59;;;;;;;;;;;;;;;16.57;100.00;102862.47;10460496;28;21439;-76
2022/08/09 22:27:00;;;;;;;;;;;;;;;16.54;100.00;102867.44;10440061;28;19917;-76
2022/08/09 22:32:00;;;;;;;;;;;;;;;16.52;100.00;102863.22;10449837;28;19956;-76
2022/08/09 22:37:01;;;;;;;;;;;;;;;16.51;100.00;102869.84;10442287;28;20351;-75
2022/08/09 22:42:01;;;;;;;;;;;;;;;16.51;100.00;102864.31;10441853;28;19980;-77
2022/08/09 22:47:01;;;;;;;;;;;;;;;16.47;100.00;102863.09;10459743;28;19916;-76
2022/08/09 22:52:02;;;;;;;;;;;;;;;16.43;100.00;102867.47;10426542;28;19916;-76
2022/08/09 22:57:03;;;;;;;;;;;;;;;16.33;100.00;102862.56;10441135;28;19920;-77
2022/08/09 23:02:03;;;;;;;;;;;;;;;16.29;100.00;102867.75;10425766;28;19963;-77
2022/08/09 23:12:23;;;;;;;;;;;;;;;16.25;100.00;102866.53;10443547;28;19927;-75
2022/08/09 23:17:24;;;;;;;;;;;;;;;16.24;100.00;102862.06;10425225;28;19963;-77
2022/08/09 23:22:24;;;;;;;;;;;;;;;16.26;100.00;102857.09;10440123;28;19921;-76
2022/08/09 23:27:24;;;;;;;;;;;;;;;16.19;100.00;102855.56;10456763;28;20046;-77
2022/08/09 23:32:25;;;;;;;;;;;;;;;16.09;100.00;102847.84;10423257;28;19927;-77
2022/08/09 23:37:25;;;;;;;;;;;;;;;16.03;100.00;102849.66;10440217;28;19928;-76
2022/08/09 23:42:26;;;;;;;;;;;;;;;16.01;100.00;102849.03;10456735;28;19985;-76
2022/08/09 23:47:26;;;;;;;;;;;;;;;15.94;100.00;102846.41;10423391;28;19928;-76
2022/08/09 23:52:26;;;;;;;;;;;;;;;15.88;100.00;102839.03;10439486;28;20162;-77
2022/08/09 23:57:27;;;;;;;;;;;;;;;15.78;100.00;102838.78;10455459;28;19944;-76
